sensor_id;sensor_type;location;lat;lon;timestamp;pressure;altitude;pressure_sealevel;temperature;humidity
40998;BME280;26740;45.944;12.480;2022-08-21T00:00:24;100770.63;;;18.48;100.00
40998;BME280;26740;45.944;12.480;2022-08-21T00:02:54;100774.50;;;18.33;100.00
40998;BME280;26740;45.944;12.480;2022-08-21T00:05:21;100776.13;;;18.21;100.00
40998;BME280;26740;45.944;12.480;2022-08-21T00:07:47;100777.38;;;18.14;100.00
40998;BME280;26740;45.944;12.480;2022-08-21T00:10:13;100778.56;;;18.08;100.00
40998;BME280;26740;45.944;12.480;2022-08-21T00:12:40;100777.00;;;18.02;100.00
40998;BME280;26740;45.944;12.480;2022-08-21T00:15:07;100771.53;;;17.92;100.00
40998;BME280;26740;45.944;12.480;2022-08-21T00:17:34;100771.59;;;17.87;100.00
40998;BME280;26740;45.944;12.480;2022-08-21T00:20:00;100770.38;;;17.93;100.00
40998;BME280;26740;45.944;12.480;2022-08-21T00:22:26;100763.47;;;18.04;100.00
40998;BME280;26740;45.944;12.480;2022-08-21T00:24:52;100760.22;;;17.97;100.00
40998;BME280;26740;45.944;12.480;2022-08-21T00:27:17;100766.25;;;17.85;100.00
40998;BME280;26740;45.944;12.480;2022-08-21T00:29:43;100766.63;;;17.78;100.00
40998;BME280;26740;45.944;12.480;2022-08-21T00:32:09;100766.19;;;17.71;100.00
40998;BME280;26740;45.944;12.480;2022-08-21T00:34:34;100765.34;;;17.71;100.00
40998;BME280;26740;45.944;12.480;2022-08-21T00:37:00;100767.25;;;17.75;100.00
40998;BME280;26740;45.944;12.480;2022-08-21T00:39:25;100773.53;;;17.91;100.00
40998;BME280;26740;45.944;12.480;2022-08-21T00:41:51;100766.28;;;18.04;100.00
40998;BME280;26740;45.944;12.480;2022-08-21T00:44:16;100762.25;;;18.10;100.00
40998;BME280;26740;45.944;12.480;2022-08-21T00:46:43;100757.63;;;18.00;100.00
40998;BME280;26740;45.944;12.480;2022-08-21T00:49:10;100755.59;;;17.87;100.00
40998;BME280;26740;45.944;12.480;2022-08-21T00:51:49;100747.72;;;17.84;100.00
40998;BME280;26740;45.944;12.480;2022-08-21T00:54:17;100771.91;;;18.04;100.00
40998;BME280;26740;45.944;12.480;2022-08-21T00:56:43;100766.34;;;17.80;100.00
40998;BME280;26740;45.944;12.480;2022-08-21T00:59:10;100759.97;;;17.74;100.00
40998;BME280;26740;45.944;12.480;2022-08-21T01:01:36;100754.28;;;17.79;100.00
40998;BME280;26740;45.944;12.480;2022-08-21T01:04:02;100755.59;;;17.87;100.00
40998;BME280;26740;45.944;12.480;2022-08-21T01:06:28;100747.38;;;17.91;100.00
40998;BME280;26740;45.944;12.480;2022-08-21T01:08:54;100750.00;;;17.82;100.00
40998;BME280;26740;45.944;12.480;2022-08-21T01:11:20;100751.69;;;17.83;100.00
40998;BME280;26740;45.944;12.480;2022-08-21T01:13:47;100749.03;;;17.73;100.00
40998;BME280;26740;45.944;12.480;2022-08-21T01:16:15;100748.03;;;17.63;100.00
40998;BME280;26740;45.944;12.480;2022-08-21T01:18:43;100747.28;;;17.58;100.00
40998;BME280;26740;45.944;12.480;2022-08-21T01:21:13;100754.84;;;17.57;100.00
40998;BME280;26740;45.944;12.480;2022-08-21T01:23:44;100757.59;;;17.62;100.00
40998;BME280;26740;45.944;12.480;2022-08-21T01:26:12;100760.75;;;17.56;100.00
40998;BME280;26740;45.944;12.480;2022-08-21T01:28:43;100752.44;;;17.51;100.00
40998;BME280;26740;45.944;12.480;2022-08-21T01:31:12;100751.69;;;17.64;100.00
40998;BME280;26740;45.944;12.480;2022-08-21T01:33:39;100754.94;;;17.71;100.00
40998;BME280;26740;45.944;12.480;2022-08-21T01:36:06;100750.91;;;17.58;100.00
40998;BME280;26740;45.944;12.480;2022-08-21T01:38:31;100758.19;;;17.40;100.00
40998;BME280;26740;45.944;12.480;2022-08-21T01:40:57;100756.28;;;17.36;100.00
40998;BME280;26740;45.944;12.480;2022-08-21T01:43:23;100756.28;;;17.36;100.00
40998;BME280;26740;45.944;12.480;2022-08-21T01:45:49;100754.69;;;17.30;100.00
40998;BME280;26740;45.944;12.480;2022-08-21T01:48:15;100759.50;;;17.24;100.00
40998;BME280;26740;45.944;12.480;2022-08-21T01:50:41;100754.50;;;17.21;100.00
40998;BME280;26740;45.944;12.480;2022-08-21T01:53:06;100747.50;;;17.18;100.00
40998;BME280;26740;45.944;12.480;2022-08-21T01:55:32;100745.16;;;17.25;100.00
40998;BME280;26740;45.944;12.480;2022-08-21T01:57:58;100747.78;;;17.41;100.00
40998;BME280;26740;45.944;12.480;2022-08-21T02:00:25;100748.47;;;17.52;100.00
40998;BME280;26740;45.944;12.480;2022-08-21T02:02:51;100752.09;;;17.33;100.00
40998;BME280;26740;45.944;12.480;2022-08-21T02:05:17;100745.41;;;17.29;100.00
40998;BME280;26740;45.944;12.480;2022-08-21T02:07:51;100745.63;;;17.14;100.00
40998;BME280;26740;45.944;12.480;2022-08-21T02:10:26;100747.63;;;17.08;100.00
40998;BME280;26740;45.944;12.480;2022-08-21T02:12:54;100744.06;;;17.02;100.00
40998;BME280;26740;45.944;12.480;2022-08-21T02:15:21;100744.28;;;17.06;100.00
40998;BME280;26740;45.944;12.480;2022-08-21T02:17:57;100739.53;;;17.07;100.00
40998;BME280;26740;45.944;12.480;2022-08-21T02:20:37;100737.91;;;17.00;100.00
40998;BME280;26740;45.944;12.480;2022-08-21T02:23:05;100739.84;;;17.05;100.00
40998;BME280;26740;45.944;12.480;2022-08-21T02:25:32;100741.97;;;17.13;100.00
40998;BME280;26740;45.944;12.480;2022-08-21T02:27:59;100734.56;;;17.22;100.00
40998;BME280;26740;45.944;12.480;2022-08-21T02:30:31;100729.72;;;17.28;100.00
40998;BME280;26740;45.944;12.480;2022-08-21T02:32:57;100731.31;;;17.34;100.00
40998;BME280;26740;45.944;12.480;2022-08-21T02:35:23;100728.97;;;17.22;100.00
40998;BME280;26740;45.944;12.480;2022-08-21T02:37:54;100731.25;;;17.15;100.00
40998;BME280;26740;45.944;12.480;2022-08-21T02:40:25;100724.66;;;17.06;100.00
40998;BME280;26740;45.944;12.480;2022-08-21T02:42:52;100719.97;;;17.20;100.00
40998;BME280;26740;45.944;12.480;2022-08-21T02:45:18;100719.28;;;17.10;100.00
40998;BME280;26740;45.944;12.480;2022-08-21T02:47:51;100729.50;;;17.00;100.00
40998;BME280;26740;45.944;12.480;2022-08-21T02:50:25;100720.66;;;17.12;100.00
40998;BME280;26740;45.944;12.480;2022-08-21T02:52:51;100727.63;;;17.15;100.00
40998;BME280;26740;45.944;12.480;2022-08-21T02:55:22;100728.78;;;17.14;100.00
40998;BME280;26740;45.944;12.480;2022-08-21T02:57:49;100728.56;;;17.10;100.00
40998;BME280;26740;45.944;12.480;2022-08-21T03:00:15;100722.63;;;17.12;100.00
40998;BME280;26740;45.944;12.480;2022-08-21T03:02:41;100722.53;;;16.98;100.00
40998;BME280;26740;45.944;12.480;2022-08-21T03:05:09;100717.50;;;16.95;100.00
40998;BME280;26740;45.944;12.480;2022-08-21T03:07:36;100717.84;;;16.88;100.00
40998;BME280;26740;45.944;12.480;2022-08-21T03:10:03;100718.47;;;16.80;100.00
40998;BME280;26740;45.944;12.480;2022-08-21T03:12:29;100720.78;;;16.73;100.00
40998;BME280;26740;45.944;12.480;2022-08-21T03:14:55;100712.09;;;16.74;100.00
40998;BME280;26740;45.944;12.480;2022-08-21T03:17:20;100715.81;;;16.70;100.00
40998;BME280;26740;45.944;12.480;2022-08-21T03:19:46;100713.78;;;16.75;100.00
40998;BME280;26740;45.944;12.480;2022-08-21T03:22:12;100716.34;;;16.72;100.00
40998;BME280;26740;45.944;12.480;2022-08-21T03:24:37;100712.88;;;16.80;100.00
40998;BME280;26740;45.944;12.480;2022-08-21T03:27:03;100719.44;;;16.70;100.00
40998;BME280;26740;45.944;12.480;2022-08-21T03:29:28;100712.81;;;16.61;100.00
40998;BME280;26740;45.944;12.480;2022-08-21T03:31:54;100714.72;;;16.65;100.00
40998;BME280;26740;45.944;12.480;2022-08-21T03:34:20;100710.84;;;16.61;100.00
40998;BME280;26740;45.944;12.480;2022-08-21T03:36:47;100707.78;;;16.58;100.00
40998;BME280;26740;45.944;12.480;2022-08-21T03:39:12;100709.81;;;16.52;100.00
40998;BME280;26740;45.944;12.480;2022-08-21T03:41:39;100703.41;;;16.46;100.00
40998;BME280;26740;45.944;12.480;2022-08-21T03:44:04;100702.03;;;16.44;100.00
40998;BME280;26740;45.944;12.480;2022-08-21T03:46:30;100706.03;;;16.38;100.00
40998;BME280;26740;45.944;12.480;2022-08-21T03:48:55;100707.66;;;16.44;100.00
40998;BME280;26740;45.944;12.480;2022-08-21T03:51:21;100713.53;;;16.42;100.00
40998;BME280;26740;45.944;12.480;2022-08-21T03:53:47;100712.53;;;16.33;100.00
40998;BME280;26740;45.944;12.480;2022-08-21T03:56:14;100713.34;;;16.34;100.00
40998;BME280;26740;45.944;12.480;2022-08-21T03:58:41;100712.19;;;16.40;100.00
40998;BME280;26740;45.944;12.480;2022-08-21T04:01:07;100708.84;;;16.38;100.00
40998;BME280;26740;45.944;12.480;2022-08-21T04:03:35;100707.75;;;16.34;100.00
40998;BME280;26740;45.944;12.480;2022-08-21T04:06:03;100708.47;;;16.44;100.00
40998;BME280;26740;45.944;12.480;2022-08-21T04:08:29;100711.75;;;16.52;100.00
40998;BME280;26740;45.944;12.480;2022-08-21T04:10:56;100710.50;;;16.39;100.00
40998;BME280;26740;45.944;12.480;2022-08-21T04:13:24;100709.44;;;16.35;100.00
40998;BME280;26740;45.944;12.480;2022-08-21T04:15:51;100706.81;;;16.43;100.00
40998;BME280;26740;45.944;12.480;2022-08-21T04:18:17;100707.16;;;16.37;100.00
40998;BME280;26740;45.944;12.480;2022-08-21T04:20:45;100716.19;;;16.28;100.00
40998;BME280;26740;45.944;12.480;2022-08-21T04:23:12;100708.41;;;16.25;100.00
40998;BME280;26740;45.944;12.480;2022-08-21T04:25:38;100716.41;;;16.37;100.00
40998;BME280;26740;45.944;12.480;2022-08-21T04:28:04;100729.00;;;16.40;100.00
40998;BME280;26740;45.944;12.480;2022-08-21T04:30:30;100725.03;;;16.41;100.00
40998;BME280;26740;45.944;12.480;2022-08-21T04:32:57;100728.25;;;16.58;100.00
40998;BME280;26740;45.944;12.480;2022-08-21T04:35:24;100728.16;;;16.68;100.00
40998;BME280;26740;45.944;12.480;2022-08-21T04:37:50;100733.66;;;16.49;100.00
40998;BME280;26740;45.944;12.480;2022-08-21T04:40:17;100739.75;;;16.57;100.00
40998;BME280;26740;45.944;12.480;2022-08-21T04:42:54;100744.97;;;16.68;100.00
40998;BME280;26740;45.944;12.480;2022-08-21T04:45:26;100743.22;;;16.73;100.00
40998;BME280;26740;45.944;12.480;2022-08-21T04:47:54;100738.38;;;16.83;100.00
40998;BME280;26740;45.944;12.480;2022-08-21T04:50:22;100745.78;;;16.98;100.00
40998;BME280;26740;45.944;12.480;2022-08-21T04:52:50;100735.81;;;16.87;100.00
40998;BME280;26740;45.944;12.480;2022-08-21T04:55:17;100740.47;;;16.97;100.00
40998;BME280;26740;45.944;12.480;2022-08-21T04:57:43;100748.00;;;17.01;100.00
40998;BME280;26740;45.944;12.480;2022-08-21T05:00:10;100742.41;;;17.01;100.00
40998;BME280;26740;45.944;12.480;2022-08-21T05:02:38;100739.72;;;16.91;100.00
40998;BME280;26740;45.944;12.480;2022-08-21T05:05:05;100748.66;;;17.17;100.00
40998;BME280;26740;45.944;12.480;2022-08-21T05:07:31;100758.78;;;17.37;100.00
40998;BME280;26740;45.944;12.480;2022-08-21T05:09:59;100748.94;;;17.59;100.00
40998;BME280;26740;45.944;12.480;2022-08-21T05:12:25;100751.41;;;18.36;100.00
40998;BME280;26740;45.944;12.480;2022-08-21T05:14:51;100746.13;;;18.82;100.00
40998;BME280;26740;45.944;12.480;2022-08-21T05:17:16;100750.50;;;19.57;100.00
40998;BME280;26740;45.944;12.480;2022-08-21T05:19:42;100751.38;;;20.62;100.00
40998;BME280;26740;45.944;12.480;2022-08-21T05:22:08;100748.75;;;21.46;100.00
40998;BME280;26740;45.944;12.480;2022-08-21T05:24:35;100755.47;;;22.28;100.00
40998;BME280;26740;45.944;12.480;2022-08-21T05:27:00;100755.56;;;23.23;100.00
40998;BME280;26740;45.944;12.480;2022-08-21T05:29:26;100754.03;;;23.85;100.00
40998;BME280;26740;45.944;12.480;2022-08-21T05:31:53;100758.19;;;24.09;100.00
40998;BME280;26740;45.944;12.480;2022-08-21T05:34:22;100761.13;;;24.54;100.00
40998;BME280;26740;45.944;12.480;2022-08-21T05:36:49;100756.84;;;24.94;100.00
40998;BME280;26740;45.944;12.480;2022-08-21T05:39:15;100763.50;;;25.72;100.00
40998;BME280;26740;45.944;12.480;2022-08-21T05:41:41;100762.88;;;24.92;100.00
40998;BME280;26740;45.944;12.480;2022-08-21T05:44:07;100758.03;;;24.93;100.00
40998;BME280;26740;45.944;12.480;2022-08-21T05:46:33;100767.63;;;25.13;100.00
40998;BME280;26740;45.944;12.480;2022-08-21T05:48:58;100769.53;;;25.95;100.00
40998;BME280;26740;45.944;12.480;2022-08-21T05:51:24;100769.22;;;25.60;100.00
40998;BME280;26740;45.944;12.480;2022-08-21T05:53:50;100769.38;;;26.44;100.00
40998;BME280;26740;45.944;12.480;2022-08-21T05:56:15;100779.78;;;26.97;100.00
40998;BME280;26740;45.944;12.480;2022-08-21T05:58:41;100778.69;;;27.17;100.00
40998;BME280;26740;45.944;12.480;2022-08-21T06:01:07;100772.63;;;27.35;100.00
40998;BME280;26740;45.944;12.480;2022-08-21T06:03:38;100770.53;;;27.83;100.00
40998;BME280;26740;45.944;12.480;2022-08-21T06:06:04;100771.28;;;28.97;100.00
40998;BME280;26740;45.944;12.480;2022-08-21T06:08:30;100777.34;;;28.33;100.00
40998;BME280;26740;45.944;12.480;2022-08-21T06:10:58;100775.84;;;27.85;100.00
40998;BME280;26740;45.944;12.480;2022-08-21T06:13:25;100774.44;;;28.92;100.00
40998;BME280;26740;45.944;12.480;2022-08-21T06:16:04;100767.81;;;29.57;100.00
40998;BME280;26740;45.944;12.480;2022-08-21T06:18:31;100778.03;;;30.12;81.29
40998;BME280;26740;45.944;12.480;2022-08-21T06:20:57;100774.03;;;30.16;81.24
40998;BME280;26740;45.944;12.480;2022-08-21T06:23:22;100777.56;;;30.36;77.62
40998;BME280;26740;45.944;12.480;2022-08-21T06:25:48;100774.81;;;30.85;66.34
40998;BME280;26740;45.944;12.480;2022-08-21T06:28:14;100778.22;;;30.26;64.91
40998;BME280;26740;45.944;12.480;2022-08-21T06:30:39;100770.75;;;30.48;65.04
40998;BME280;26740;45.944;12.480;2022-08-21T06:33:06;100763.06;;;29.92;71.23
40998;BME280;26740;45.944;12.480;2022-08-21T06:35:32;100774.75;;;30.77;63.14
40998;BME280;26740;45.944;12.480;2022-08-21T06:37:59;100768.78;;;29.92;63.77
40998;BME280;26740;45.944;12.480;2022-08-21T06:40:26;100762.06;;;29.30;68.11
40998;BME280;26740;45.944;12.480;2022-08-21T06:42:52;100763.28;;;29.79;67.30
40998;BME280;26740;45.944;12.480;2022-08-21T06:45:17;100766.00;;;28.99;71.18
40998;BME280;26740;45.944;12.480;2022-08-21T06:47:43;100758.91;;;29.36;69.41
40998;BME280;26740;45.944;12.480;2022-08-21T06:50:09;100767.78;;;29.80;67.10
40998;BME280;26740;45.944;12.480;2022-08-21T06:52:36;100774.59;;;29.72;66.76
40998;BME280;26740;45.944;12.480;2022-08-21T06:55:06;100757.81;;;29.44;75.86
40998;BME280;26740;45.944;12.480;2022-08-21T06:57:33;100766.28;;;29.90;67.47
40998;BME280;26740;45.944;12.480;2022-08-21T06:59:59;100762.09;;;29.57;65.40
40998;BME280;26740;45.944;12.480;2022-08-21T07:02:24;100763.75;;;29.85;67.43
40998;BME280;26740;45.944;12.480;2022-08-21T07:04:50;100770.16;;;30.35;63.95
40998;BME280;26740;45.944;12.480;2022-08-21T07:07:16;100769.78;;;29.76;64.25
40998;BME280;26740;45.944;12.480;2022-08-21T07:09:42;100767.84;;;29.34;66.34
40998;BME280;26740;45.944;12.480;2022-08-21T07:12:08;100769.34;;;28.82;66.92
40998;BME280;26740;45.944;12.480;2022-08-21T07:14:35;100763.38;;;30.17;67.30
40998;BME280;26740;45.944;12.480;2022-08-21T07:17:01;100760.47;;;29.33;67.67
40998;BME280;26740;45.944;12.480;2022-08-21T07:19:27;100760.41;;;29.53;65.64
40998;BME280;26740;45.944;12.480;2022-08-21T07:21:58;100756.00;;;30.46;63.23
40998;BME280;26740;45.944;12.480;2022-08-21T07:24:24;100758.41;;;30.78;62.94
40998;BME280;26740;45.944;12.480;2022-08-21T07:26:51;100763.19;;;31.08;63.79
40998;BME280;26740;45.944;12.480;2022-08-21T07:29:16;100755.59;;;30.17;67.74
40998;BME280;26740;45.944;12.480;2022-08-21T07:31:42;100753.38;;;30.03;70.62
40998;BME280;26740;45.944;12.480;2022-08-21T07:34:08;100753.50;;;29.84;70.43
40998;BME280;26740;45.944;12.480;2022-08-21T07:36:34;100763.75;;;30.15;68.56
40998;BME280;26740;45.944;12.480;2022-08-21T07:38:59;100759.00;;;29.43;71.89
40998;BME280;26740;45.944;12.480;2022-08-21T07:41:28;100750.63;;;29.30;71.57
40998;BME280;26740;45.944;12.480;2022-08-21T07:43:55;100750.75;;;29.38;71.17
40998;BME280;26740;45.944;12.480;2022-08-21T07:46:23;100758.00;;;29.81;69.97
40998;BME280;26740;45.944;12.480;2022-08-21T07:48:50;100763.44;;;29.63;67.27
40998;BME280;26740;45.944;12.480;2022-08-21T07:51:17;100764.00;;;30.03;67.66
40998;BME280;26740;45.944;12.480;2022-08-21T07:53:48;100760.97;;;30.53;64.50
40998;BME280;26740;45.944;12.480;2022-08-21T07:56:16;100754.06;;;30.23;66.99
40998;BME280;26740;45.944;12.480;2022-08-21T07:58:41;100763.88;;;32.01;60.50
40998;BME280;26740;45.944;12.480;2022-08-21T08:01:07;100764.13;;;32.41;61.48
40998;BME280;26740;45.944;12.480;2022-08-21T08:03:33;100759.78;;;33.48;59.45
40998;BME280;26740;45.944;12.480;2022-08-21T08:05:59;100771.66;;;33.89;59.20
40998;BME280;26740;45.944;12.480;2022-08-21T08:08:25;100760.44;;;32.44;60.83
40998;BME280;26740;45.944;12.480;2022-08-21T08:10:53;100751.53;;;32.96;59.77
40998;BME280;26740;45.944;12.480;2022-08-21T08:13:19;100747.84;;;32.92;62.82
40998;BME280;26740;45.944;12.480;2022-08-21T08:15:45;100748.97;;;31.70;63.45
40998;BME280;26740;45.944;12.480;2022-08-21T08:18:10;100745.09;;;31.48;62.46
40998;BME280;26740;45.944;12.480;2022-08-21T08:20:36;100744.50;;;32.79;57.19
40998;BME280;26740;45.944;12.480;2022-08-21T08:23:02;100741.97;;;32.56;60.63
40998;BME280;26740;45.944;12.480;2022-08-21T08:25:28;100745.41;;;33.19;57.50
40998;BME280;26740;45.944;12.480;2022-08-21T08:27:53;100736.22;;;32.56;61.81
40998;BME280;26740;45.944;12.480;2022-08-21T08:30:20;100740.31;;;34.13;55.05
40998;BME280;26740;45.944;12.480;2022-08-21T08:32:48;100744.13;;;33.74;50.72
40998;BME280;26740;45.944;12.480;2022-08-21T08:35:15;100735.78;;;34.19;50.75
40998;BME280;26740;45.944;12.480;2022-08-21T08:37:41;100736.34;;;33.46;53.31
40998;BME280;26740;45.944;12.480;2022-08-21T08:40:20;100734.25;;;32.71;54.52
40998;BME280;26740;45.944;12.480;2022-08-21T08:42:48;100733.44;;;33.67;49.46
40998;BME280;26740;45.944;12.480;2022-08-21T08:45:18;100733.91;;;33.22;47.47
40998;BME280;26740;45.944;12.480;2022-08-21T08:47:56;100739.19;;;33.74;44.47
40998;BME280;26740;45.944;12.480;2022-08-21T08:50:33;100735.84;;;33.90;47.50
40998;BME280;26740;45.944;12.480;2022-08-21T08:53:06;100728.94;;;33.05;51.14
40998;BME280;26740;45.944;12.480;2022-08-21T08:55:43;100729.38;;;33.14;49.99
40998;BME280;26740;45.944;12.480;2022-08-21T08:58:18;100735.44;;;33.92;47.96
40998;BME280;26740;45.944;12.480;2022-08-21T09:00:56;100738.59;;;34.33;43.31
40998;BME280;26740;45.944;12.480;2022-08-21T09:03:24;100745.84;;;35.26;47.50
40998;BME280;26740;45.944;12.480;2022-08-21T09:06:12;100731.63;;;34.98;45.28
40998;BME280;26740;45.944;12.480;2022-08-21T09:14:30;100736.56;;;37.34;40.28
40998;BME280;26740;45.944;12.480;2022-08-21T09:17:19;100731.81;;;37.48;36.76
40998;BME280;26740;45.944;12.480;2022-08-21T09:20:08;100729.47;;;36.61;38.06
40998;BME280;26740;45.944;12.480;2022-08-21T09:25:27;100723.78;;;35.88;41.98
40998;BME280;26740;45.944;12.480;2022-08-21T09:27:53;100730.06;;;35.80;40.10
40998;BME280;26740;45.944;12.480;2022-08-21T09:30:25;100722.63;;;36.17;42.26
40998;BME280;26740;45.944;12.480;2022-08-21T09:32:52;100726.81;;;37.01;37.89
40998;BME280;26740;45.944;12.480;2022-08-21T09:35:21;100722.34;;;37.67;41.46
40998;BME280;26740;45.944;12.480;2022-08-21T09:37:54;100728.13;;;38.67;36.77
40998;BME280;26740;45.944;12.480;2022-08-21T09:40:30;100726.66;;;38.59;34.95
40998;BME280;26740;45.944;12.480;2022-08-21T09:43:00;100726.06;;;37.44;37.93
40998;BME280;26740;45.944;12.480;2022-08-21T09:45:27;100717.47;;;38.44;42.86
40998;BME280;26740;45.944;12.480;2022-08-21T09:47:53;100719.63;;;38.20;37.30
40998;BME280;26740;45.944;12.480;2022-08-21T09:50:25;100718.47;;;38.54;37.39
40998;BME280;26740;45.944;12.480;2022-08-21T09:52:57;100720.28;;;39.01;35.78
40998;BME280;26740;45.944;12.480;2022-08-21T09:55:47;100714.06;;;38.66;36.66
40998;BME280;26740;45.944;12.480;2022-08-21T09:58:35;100721.19;;;37.85;35.70
40998;BME280;26740;45.944;12.480;2022-08-21T10:01:02;100716.63;;;36.62;38.48
40998;BME280;26740;45.944;12.480;2022-08-21T10:03:29;100712.00;;;36.95;39.83
40998;BME280;26740;45.944;12.480;2022-08-21T10:06:01;100710.50;;;36.56;37.89
40998;BME280;26740;45.944;12.480;2022-08-21T10:08:31;100708.34;;;37.86;37.37
40998;BME280;26740;45.944;12.480;2022-08-21T10:11:10;100709.06;;;37.90;35.57
40998;BME280;26740;45.944;12.480;2022-08-21T10:13:59;100708.56;;;37.51;36.85
40998;BME280;26740;45.944;12.480;2022-08-21T10:22:40;100705.66;;;38.35;37.83
40998;BME280;26740;45.944;12.480;2022-08-21T10:35:50;100698.25;;;36.14;40.06
40998;BME280;26740;45.944;12.480;2022-08-21T10:38:54;100695.84;;;37.89;40.86
40998;BME280;26740;45.944;12.480;2022-08-21T10:47:28;100692.69;;;36.00;39.89
40998;BME280;26740;45.944;12.480;2022-08-21T10:50:08;100685.84;;;35.00;40.83
40998;BME280;26740;45.944;12.480;2022-08-21T10:52:42;100695.28;;;35.49;39.70
40998;BME280;26740;45.944;12.480;2022-08-21T10:58:12;100692.81;;;36.23;40.55
40998;BME280;26740;45.944;12.480;2022-08-21T11:03:17;100679.22;;;35.03;44.55
40998;BME280;26740;45.944;12.480;2022-08-21T11:05:52;100682.00;;;34.61;47.07
40998;BME280;26740;45.944;12.480;2022-08-21T11:08:33;100685.84;;;35.03;46.21
40998;BME280;26740;45.944;12.480;2022-08-21T11:11:35;100673.81;;;35.08;43.60
40998;BME280;26740;45.944;12.480;2022-08-21T11:14:28;100678.59;;;35.67;44.39
40998;BME280;26740;45.944;12.480;2022-08-21T11:17:12;100685.94;;;35.79;45.92
40998;BME280;26740;45.944;12.480;2022-08-21T11:19:45;100675.34;;;36.00;48.25
40998;BME280;26740;45.944;12.480;2022-08-21T11:22:21;100676.75;;;35.88;42.42
40998;BME280;26740;45.944;12.480;2022-08-21T11:25:14;100681.91;;;36.04;42.54
40998;BME280;26740;45.944;12.480;2022-08-21T11:30:11;100671.84;;;36.74;42.87
40998;BME280;26740;45.944;12.480;2022-08-21T11:36:07;100666.00;;;35.88;41.79
40998;BME280;26740;45.944;12.480;2022-08-21T11:38:42;100660.19;;;36.23;45.78
40998;BME280;26740;45.944;12.480;2022-08-21T11:47:09;100652.91;;;36.11;41.33
40998;BME280;26740;45.944;12.480;2022-08-21T11:49:53;100655.63;;;35.57;42.67
40998;BME280;26740;45.944;12.480;2022-08-21T11:52:33;100655.91;;;36.04;42.77
40998;BME280;26740;45.944;12.480;2022-08-21T11:55:07;100645.38;;;36.48;39.63
40998;BME280;26740;45.944;12.480;2022-08-21T11:57:44;100644.13;;;36.76;40.94
40998;BME280;26740;45.944;12.480;2022-08-21T12:00:26;100645.56;;;36.88;41.49
40998;BME280;26740;45.944;12.480;2022-08-21T12:03:09;100644.09;;;36.22;40.54
40998;BME280;26740;45.944;12.480;2022-08-21T12:05:42;100640.44;;;36.14;40.96
40998;BME280;26740;45.944;12.480;2022-08-21T12:08:11;100637.88;;;36.51;42.84
40998;BME280;26740;45.944;12.480;2022-08-21T12:10:45;100634.56;;;37.03;43.61
40998;BME280;26740;45.944;12.480;2022-08-21T12:13:24;100629.53;;;36.56;38.08
40998;BME280;26740;45.944;12.480;2022-08-21T12:15:50;100642.75;;;35.61;40.67
40998;BME280;26740;45.944;12.480;2022-08-21T12:18:28;100631.84;;;36.11;42.35
40998;BME280;26740;45.944;12.480;2022-08-21T12:21:01;100616.94;;;36.12;43.56
40998;BME280;26740;45.944;12.480;2022-08-21T12:23:30;100623.84;;;36.49;38.44
40998;BME280;26740;45.944;12.480;2022-08-21T12:28:27;100622.47;;;35.34;41.03
40998;BME280;26740;45.944;12.480;2022-08-21T12:30:54;100626.28;;;35.62;39.99
40998;BME280;26740;45.944;12.480;2022-08-21T12:35:49;100604.69;;;35.74;39.39
40998;BME280;26740;45.944;12.480;2022-08-21T12:38:27;100606.72;;;35.77;40.16
40998;BME280;26740;45.944;12.480;2022-08-21T12:40:57;100611.91;;;35.89;39.18
40998;BME280;26740;45.944;12.480;2022-08-21T12:43:33;100606.09;;;35.93;36.97
40998;BME280;26740;45.944;12.480;2022-08-21T12:46:00;100594.63;;;36.16;43.70
40998;BME280;26740;45.944;12.480;2022-08-21T12:48:48;100598.00;;;36.38;41.69
40998;BME280;26740;45.944;12.480;2022-08-21T12:54:09;100588.59;;;36.58;37.21
40998;BME280;26740;45.944;12.480;2022-08-21T12:56:34;100580.97;;;36.44;37.23
40998;BME280;26740;45.944;12.480;2022-08-21T12:59:04;100580.75;;;35.73;38.89
40998;BME280;26740;45.944;12.480;2022-08-21T13:01:54;100576.47;;;36.43;38.79
40998;BME280;26740;45.944;12.480;2022-08-21T13:04:32;100578.50;;;36.42;39.43
40998;BME280;26740;45.944;12.480;2022-08-21T13:07:00;100575.25;;;36.40;38.08
40998;BME280;26740;45.944;12.480;2022-08-21T13:09:28;100573.47;;;36.19;35.16
40998;BME280;26740;45.944;12.480;2022-08-21T13:11:56;100570.38;;;36.34;36.34
40998;BME280;26740;45.944;12.480;2022-08-21T13:14:39;100564.44;;;36.17;38.16
40998;BME280;26740;45.944;12.480;2022-08-21T13:17:06;100564.13;;;36.12;39.30
40998;BME280;26740;45.944;12.480;2022-08-21T13:19:33;100575.94;;;35.94;37.50
40998;BME280;26740;45.944;12.480;2022-08-21T13:22:00;100566.47;;;35.59;36.82
40998;BME280;26740;45.944;12.480;2022-08-21T13:24:35;100564.13;;;34.70;35.51
40998;BME280;26740;45.944;12.480;2022-08-21T13:27:01;100560.50;;;35.04;35.05
40998;BME280;26740;45.944;12.480;2022-08-21T13:29:32;100561.41;;;35.36;39.91
40998;BME280;26740;45.944;12.480;2022-08-21T13:32:04;100554.50;;;35.26;37.79
40998;BME280;26740;45.944;12.480;2022-08-21T13:34:34;100547.84;;;34.46;37.86
40998;BME280;26740;45.944;12.480;2022-08-21T13:37:04;100553.66;;;34.91;37.82
40998;BME280;26740;45.944;12.480;2022-08-21T13:39:32;100546.22;;;35.28;39.90
40998;BME280;26740;45.944;12.480;2022-08-21T13:42:02;100549.19;;;35.55;37.37